Time;durP1;ratioP1;P1;durP2;ratioP2;P2;SDS_P1;SDS_P2;PMS_P1;PMS_P2;Temp;Humidity;BMP_temperature;BMP_pressure;BME280_temperature;BME280_humidity;BME280_pressure;Samples;Min_cycle;Max_cycle;Signal;HPM_P1;HPM_P2
2020/12/14 00:00:09;;;;;;;7.05;2.65;;;3.60;96.10;;;;;;5091944;28;20056;-80
2020/12/14 00:02:36;;;;;;;10.25;3.40;;;3.70;96.50;;;;;;5082973;28;20128;-81
2020/12/14 00:05:06;;;;;;;5.78;2.92;;;3.70;96.10;;;;;;5080900;28;20052;-82
2020/12/14 00:07:34;;;;;;;7.32;4.15;;;3.80;96.00;;;;;;5080974;28;20056;-81
2020/12/14 00:10:02;;;;;;;7.88;3.42;;;3.80;95.80;;;;;;5082019;28;20120;-84
2020/12/14 00:12:30;;;;;;;8.25;3.17;;;3.70;96.10;;;;;;5080438;28;20355;-84
2020/12/14 00:14:57;;;;;;;7.53;3.53;;;3.70;96.20;;;;;;5110512;28;20252;-82
2020/12/14 00:17:24;;;;;;;8.20;3.15;;;3.70;96.00;;;;;;5081890;28;20056;-82
2020/12/14 00:19:51;;;;;;;6.00;3.05;;;3.50;95.90;;;;;;5080048;28;20044;-83
2020/12/14 00:22:18;;;;;;;30.02;3.72;;;3.50;96.60;;;;;;5080582;28;20060;-83
2020/12/14 00:24:45;;;;;;;12.32;3.58;;;3.50;96.70;;;;;;5081779;28;20102;-82
2020/12/14 00:27:12;;;;;;;6.55;2.67;;;3.40;96.80;;;;;;5081827;28;20040;-83
2020/12/14 00:29:40;;;;;;;6.82;2.67;;;3.60;97.10;;;;;;5117451;28;20246;-84
2020/12/14 00:32:07;;;;;;;5.55;2.92;;;3.60;96.70;;;;;;5082494;28;20048;-84
2020/12/14 00:34:34;;;;;;;12.10;4.53;;;3.70;96.70;;;;;;5083478;28;20053;-82
2020/12/14 00:37:07;;;;;;;6.35;3.35;;;3.70;96.40;;;;;;5080467;28;20044;-83
2020/12/14 00:39:34;;;;;;;8.85;2.58;;;3.70;96.40;;;;;;5080082;28;20060;-82
2020/12/14 00:42:05;;;;;;;6.85;3.08;;;3.70;96.30;;;;;;5081602;28;20389;-83
2020/12/14 00:44:32;;;;;;;5.55;2.22;;;3.70;96.20;;;;;;5093541;28;20048;-83
2020/12/14 00:47:00;;;;;;;23.77;3.17;;;3.70;96.00;;;;;;5081501;28;20050;-82
2020/12/14 00:53:04;;;;;;;6.10;2.85;;;3.50;96.10;;;;;;5083497;28;20047;-84
2020/12/14 00:55:31;;;;;;;10.38;2.80;;;3.40;96.10;;;;;;5079412;28;20060;-83
2020/12/14 00:58:03;;;;;;;35.08;3.22;;;3.40;96.40;;;;;;5078369;28;20047;-82
2020/12/14 01:00:34;;;;;;;6.75;2.88;;;3.30;95.90;;;;;;5080667;28;20102;-83
2020/12/14 01:03:01;;;;;;;5.07;2.90;;;3.20;95.90;;;;;;5079436;28;20062;-84
2020/12/14 01:05:30;;;;;;;5.13;2.30;;;3.10;95.90;;;;;;5075705;28;20047;-84
2020/12/14 01:07:57;;;;;;;3.53;1.73;;;3.00;96.10;;;;;;5079563;28;20057;-84
2020/12/14 01:10:23;;;;;;;11.23;1.83;;;3.00;96.00;;;;;;5074350;28;20400;-84
2020/12/14 01:12:52;;;;;;;8.32;2.35;;;2.90;95.90;;;;;;5073450;28;20060;-82
2020/12/14 01:19:46;;;;;;;5.90;2.05;;;2.80;96.20;;;;;;5078175;28;20101;-81
2020/12/14 01:22:13;;;;;;;3.75;2.25;;;2.70;96.30;;;;;;5084878;28;20044;-83
2020/12/14 01:24:40;;;;;;;23.55;2.20;;;2.70;96.30;;;;;;5074574;28;20052;-81
2020/12/14 01:27:08;;;;;;;9.52;2.00;;;2.70;96.20;;;;;;5081253;28;20060;-81
2020/12/14 01:29:35;;;;;;;5.35;1.95;;;2.70;96.40;;;;;;5077941;28;20119;-81
2020/12/14 01:32:02;;;;;;;7.32;3.00;;;2.80;96.60;;;;;;5062260;28;20052;-80
2020/12/14 01:34:29;;;;;;;6.03;3.42;;;2.90;96.40;;;;;;5082274;28;20056;-82
2020/12/14 01:37:15;;;;;;;3.52;1.62;;;3.00;96.00;;;;;;1217069;28;10022600;-81
2020/12/14 01:39:42;;;;;;;4.10;2.22;;;3.00;95.70;;;;;;4729068;28;10001403;-84
2020/12/14 01:42:10;;;;;;;8.90;3.45;;;3.00;95.60;;;;;;5097718;28;20045;-81
2020/12/14 01:44:37;;;;;;;4.10;2.13;;;2.90;95.60;;;;;;5081371;28;20336;-81
2020/12/14 01:47:04;;;;;;;5.07;2.45;;;2.80;95.60;;;;;;5078090;28;20086;-83
2020/12/14 01:49:33;;;;;;;4.55;2.08;;;2.70;95.60;;;;;;5094312;28;20079;-80
2020/12/14 01:52:00;;;;;;;6.85;2.78;;;2.60;96.00;;;;;;5072583;28;20052;-82
2020/12/14 01:54:30;;;;;;;3.90;2.15;;;2.50;96.40;;;;;;5048026;28;20052;-81
2020/12/14 01:56:58;;;;;;;4.80;1.92;;;2.50;96.50;;;;;;5075582;28;20055;-79
2020/12/14 01:59:42;;;;;;;6.55;2.10;;;2.50;96.40;;;;;;5074141;28;20055;-83
2020/12/14 02:02:11;;;;;;;9.85;2.33;;;2.50;96.60;;;;;;5087449;28;20051;-83
2020/12/14 02:04:38;;;;;;;7.13;2.83;;;2.40;96.10;;;;;;5075682;28;20052;-81
2020/12/14 02:07:06;;;;;;;2.55;1.40;;;2.40;96.10;;;;;;5078309;28;20122;-80
2020/12/14 02:09:40;;;;;;;4.55;2.28;;;2.30;96.10;;;;;;5080355;28;20064;-83
2020/12/14 02:12:58;;;;;;;5.30;1.95;;;2.20;96.30;;;;;;5065789;28;20051;-82
2020/12/14 02:15:25;;;;;;;8.60;2.22;;;2.20;96.60;;;;;;5070971;28;20165;-84
2020/12/14 02:18:22;;;;;;;;;;;;;;;;;;;;;
2020/12/14 02:20:53;;;;;;;3.40;1.98;;;2.00;96.80;;;;;;5067525;28;20032;-83
2020/12/14 02:23:20;;;;;;;16.70;2.63;;;2.00;97.00;;;;;;5071568;28;20114;-84
2020/12/14 02:25:48;;;;;;;15.80;2.38;;;2.00;97.10;;;;;;5076038;28;20262;-82
2020/12/14 02:28:16;;;;;;;8.80;2.47;;;2.10;97.10;;;;;;5080311;28;20041;-81
2020/12/14 02:30:43;;;;;;;16.92;2.60;;;2.20;97.00;;;;;;5060528;28;20048;-82
2020/12/14 02:33:10;;;;;;;4.95;1.80;;;2.20;96.60;;;;;;5090469;28;20056;-82
2020/12/14 02:35:37;;;;;;;2.47;1.50;;;2.30;96.50;;;;;;5079107;28;20048;-81
2020/12/14 02:38:06;;;;;;;6.20;1.92;;;2.30;96.40;;;;;;5076568;28;20090;-82
2020/12/14 02:40:33;;;;;;;3.90;1.52;;;2.20;95.80;;;;;;5079417;28;20112;-82
2020/12/14 02:43:01;;;;;;;4.25;1.83;;;2.20;96.40;;;;;;5114853;28;20240;-80
2020/12/14 02:45:31;;;;;;;4.93;2.05;;;2.40;96.70;;;;;;5081066;28;20128;-80
2020/12/14 02:47:58;;;;;;;5.57;2.40;;;2.50;96.20;;;;;;5081865;28;20044;-82
2020/12/14 02:50:25;;;;;;;7.15;2.03;;;2.60;95.80;;;;;;5075814;28;20036;-81
2020/12/14 02:52:52;;;;;;;20.38;2.35;;;2.50;95.30;;;;;;5080694;28;20040;-83
2020/12/14 02:55:19;;;;;;;4.80;2.63;;;2.50;95.10;;;;;;5082141;28;20394;-82
2020/12/14 02:57:47;;;;;;;5.20;2.38;;;2.50;95.00;;;;;;5095589;28;20086;-82
2020/12/14 03:00:15;;;;;;;5.40;2.60;;;2.30;94.50;;;;;;5078742;28;20063;-82
2020/12/14 03:02:42;;;;;;;10.93;2.55;;;2.20;95.10;;;;;;5062314;28;20078;-82
2020/12/14 03:07:59;;;;;;;8.15;2.63;;;2.20;95.80;;;;;;5487707;23;20428;-81
2020/12/14 03:10:26;;;;;;;6.07;2.92;;;2.20;96.10;;;;;;4949568;29;20054;-80
2020/12/14 03:12:54;;;;;;;6.03;2.30;;;2.20;95.90;;;;;;4947591;29;20098;-80
2020/12/14 03:15:22;;;;;;;4.65;2.67;;;2.30;96.00;;;;;;4951933;29;20062;-79
2020/12/14 03:17:49;;;;;;;5.65;2.53;;;2.30;95.80;;;;;;4965134;29;20055;-81
2020/12/14 03:20:16;;;;;;;4.93;2.28;;;2.30;95.90;;;;;;4969839;28;20073;-81
2020/12/14 03:22:43;;;;;;;5.30;2.47;;;2.40;96.10;;;;;;4969847;28;20051;-81
2020/12/14 03:25:14;;;;;;;6.72;2.20;;;2.60;95.30;;;;;;4965221;28;20078;-79
2020/12/14 03:27:41;;;;;;;6.55;2.53;;;2.70;95.10;;;;;;4954515;29;20078;-80
2020/12/14 03:30:10;;;;;;;7.78;2.85;;;2.70;94.70;;;;;;4936106;28;20051;-81
2020/12/14 03:32:38;;;;;;;5.70;1.98;;;2.70;94.30;;;;;;4953894;28;20046;-81
2020/12/14 03:35:06;;;;;;;5.25;2.58;;;2.70;94.20;;;;;;4947271;28;20050;-81
2020/12/14 03:37:33;;;;;;;7.40;2.67;;;2.70;94.20;;;;;;4956775;28;20051;-80
2020/12/14 03:40:01;;;;;;;7.82;3.00;;;2.60;94.20;;;;;;4948057;28;20051;-83
2020/12/14 03:42:29;;;;;;;5.00;2.35;;;2.70;94.20;;;;;;4951456;29;20059;-80
2020/12/14 03:44:56;;;;;;;6.38;2.50;;;2.70;94.00;;;;;;4964122;29;20146;-79
2020/12/14 03:47:29;;;;;;;4.43;2.30;;;2.70;94.10;;;;;;4964445;28;20047;-80
2020/12/14 03:49:57;;;;;;;4.50;2.17;;;2.70;94.00;;;;;;4929877;29;20047;-80
2020/12/14 03:52:24;;;;;;;4.25;1.75;;;2.70;94.10;;;;;;4947585;29;20047;-81
2020/12/14 03:54:51;;;;;;;4.22;1.85;;;2.70;94.10;;;;;;4952126;29;20059;-81
2020/12/14 03:57:18;;;;;;;7.90;2.08;;;2.70;93.90;;;;;;4933385;28;20047;-80
2020/12/14 03:59:45;;;;;;;4.00;1.45;;;2.70;93.70;;;;;;4957650;28;20055;-80
2020/12/14 04:02:12;;;;;;;6.38;2.45;;;2.70;93.90;;;;;;4955367;28;20113;-80
2020/12/14 04:04:39;;;;;;;5.43;2.42;;;2.70;94.10;;;;;;4949855;29;20066;-80
2020/12/14 04:07:07;;;;;;;4.95;2.40;;;2.70;94.10;;;;;;4945306;29;20052;-81
2020/12/14 04:09:34;;;;;;;5.13;2.05;;;2.70;94.20;;;;;;4933954;29;20123;-82
2020/12/14 04:12:01;;;;;;;5.53;2.58;;;2.70;94.60;;;;;;4932244;29;20055;-80
2020/12/14 04:14:29;;;;;;;5.38;2.40;;;2.80;94.30;;;;;;4934744;29;20082;-80
2020/12/14 04:16:56;;;;;;;4.35;2.05;;;2.90;94.40;;;;;;4933128;29;20065;-79
2020/12/14 04:19:23;;;;;;;6.07;2.78;;;2.90;94.00;;;;;;4948586;29;20122;-80
2020/12/14 04:21:51;;;;;;;4.90;2.00;;;2.90;94.20;;;;;;4929813;29;20070;-79
2020/12/14 04:24:19;;;;;;;4.25;1.75;;;3.00;93.60;;;;;;4929453;29;20243;-81
2020/12/14 04:26:51;;;;;;;6.78;2.38;;;3.00;94.00;;;;;;4911151;29;20055;-81
2020/12/14 04:29:18;;;;;;;4.03;2.00;;;3.10;93.40;;;;;;4947603;29;20052;-80
2020/12/14 04:31:46;;;;;;;4.10;2.00;;;3.10;93.50;;;;;;4932165;29;20061;-83
2020/12/14 04:34:13;;;;;;;3.58;1.88;;;3.00;93.40;;;;;;4929715;29;20051;-81
2020/12/14 04:36:44;;;;;;;8.55;2.65;;;3.00;93.60;;;;;;4945137;29;20064;-81
2020/12/14 04:39:11;;;;;;;5.50;2.13;;;3.00;93.80;;;;;;4945523;29;20078;-84
2020/12/14 04:41:39;;;;;;;6.70;2.40;;;2.90;94.40;;;;;;4945797;29;20378;-81
2020/12/14 04:44:08;;;;;;;6.10;2.50;;;3.00;94.70;;;;;;4930054;29;20056;-81
2020/12/14 04:46:35;;;;;;;6.15;2.40;;;3.00;94.60;;;;;;4931101;29;20052;-80
2020/12/14 04:49:04;;;;;;;3.10;1.75;;;3.00;94.60;;;;;;4930887;29;20043;-80
2020/12/14 04:51:32;;;;;;;5.13;2.50;;;3.00;94.40;;;;;;4948258;29;20067;-80
2020/12/14 04:54:01;;;;;;;3.80;2.17;;;3.10;94.10;;;;;;4949686;29;20039;-79
2020/12/14 04:56:30;;;;;;;6.68;2.20;;;3.00;94.30;;;;;;4931069;29;20082;-81
2020/12/14 04:58:58;;;;;;;3.95;2.10;;;3.10;94.30;;;;;;4928453;29;20051;-81
2020/12/14 05:01:25;;;;;;;6.13;2.38;;;3.00;94.10;;;;;;4941098;29;20083;-79
2020/12/14 05:03:52;;;;;;;5.18;2.30;;;2.90;94.40;;;;;;4929879;29;20050;-81
2020/12/14 05:06:19;;;;;;;5.32;2.67;;;2.80;94.50;;;;;;4932094;29;20108;-82
2020/12/14 05:08:46;;;;;;;6.13;2.42;;;2.80;94.40;;;;;;4946666;29;20064;-81
2020/12/14 05:11:13;;;;;;;6.45;3.15;;;2.80;94.10;;;;;;4943672;29;20062;-81
2020/12/14 05:13:40;;;;;;;35.97;17.92;;;2.60;94.50;;;;;;4928189;29;20051;-82
2020/12/14 05:16:09;;;;;;;37.95;17.75;;;2.60;94.50;;;;;;4952378;29;20242;-81
2020/12/14 05:18:36;;;;;;;15.43;7.85;;;2.50;94.60;;;;;;4959220;28;20219;-81
2020/12/14 05:21:07;;;;;;;7.68;3.42;;;2.40;95.20;;;;;;4947690;29;20200;-79
2020/12/14 05:23:34;;;;;;;4.35;2.33;;;2.50;95.20;;;;;;4930725;29;20070;-79
2020/12/14 05:26:05;;;;;;;9.98;2.33;;;2.40;95.20;;;;;;4942996;29;20051;-79
2020/12/14 05:28:32;;;;;;;4.75;2.38;;;2.40;95.10;;;;;;4958854;28;20075;-81
2020/12/14 05:31:00;;;;;;;6.45;2.60;;;2.40;95.30;;;;;;4946146;29;20385;-82
2020/12/14 05:33:30;;;;;;;4.90;2.42;;;2.40;95.60;;;;;;4948867;29;20062;-82
2020/12/14 05:35:57;;;;;;;5.88;2.17;;;2.40;95.60;;;;;;4943376;29;20311;-80
2020/12/14 05:38:26;;;;;;;5.05;2.50;;;2.40;95.70;;;;;;4952190;29;20115;-79
2020/12/14 05:40:55;;;;;;;4.78;3.03;;;2.40;95.80;;;;;;4961226;28;20043;-80
2020/12/14 05:43:23;;;;;;;6.60;2.67;;;2.40;95.80;;;;;;4946011;29;20055;-81
2020/12/14 05:46:10;;;;;;;4.75;2.28;;;2.40;96.10;;;;;;4944228;29;20051;-81
2020/12/14 05:48:38;;;;;;;6.40;2.30;;;2.50;96.20;;;;;;4963047;28;20043;-79
2020/12/14 05:51:07;;;;;;;12.90;3.60;;;2.40;96.00;;;;;;4944856;29;21456;-80
2020/12/14 05:53:36;;;;;;;8.25;3.10;;;2.50;96.20;;;;;;4926827;29;20131;-79
2020/12/14 05:56:05;;;;;;;10.63;2.88;;;2.50;96.00;;;;;;4954113;29;20055;-81
2020/12/14 05:58:33;;;;;;;6.40;2.60;;;2.50;96.20;;;;;;4947221;29;20086;-80
2020/12/14 06:01:02;;;;;;;3.92;1.83;;;2.70;96.40;;;;;;4946351;29;20047;-80
2020/12/14 06:03:32;;;;;;;6.05;2.53;;;2.70;96.20;;;;;;4945612;29;20052;-80
2020/12/14 06:06:01;;;;;;;6.35;2.22;;;2.70;96.10;;;;;;4961122;28;20568;-80
2020/12/14 06:09:05;;;;;;;5.00;1.98;;;2.90;96.10;;;;;;4944347;29;20066;-82
2020/12/14 06:11:37;;;;;;;9.20;2.67;;;3.00;95.60;;;;;;4908245;29;20369;-81
2020/12/14 06:14:05;;;;;;;5.15;2.40;;;3.00;95.50;;;;;;4945224;29;20390;-81
2020/12/14 06:16:35;;;;;;;6.47;2.85;;;3.10;95.40;;;;;;4925850;29;20216;-81
2020/12/14 06:19:03;;;;;;;5.25;2.13;;;3.20;95.20;;;;;;4906861;29;20036;-79
2020/12/14 06:21:35;;;;;;;6.22;2.67;;;3.20;95.10;;;;;;4907502;29;20063;-81
2020/12/14 06:24:06;;;;;;;10.13;2.30;;;3.30;95.00;;;;;;4927006;29;20086;-80
2020/12/14 06:26:35;;;;;;;6.70;3.15;;;3.40;94.90;;;;;;4923220;29;20059;-80
2020/12/14 06:29:03;;;;;;;6.80;3.05;;;3.40;94.90;;;;;;4939035;29;20052;-80
2020/12/14 06:31:35;;;;;;;6.90;2.92;;;3.40;95.00;;;;;;4912553;29;20059;-79
2020/12/14 06:34:03;;;;;;;5.45;2.08;;;3.50;95.10;;;;;;4944475;29;20054;-81
2020/12/14 06:36:41;;;;;;;6.43;2.80;;;3.50;95.00;;;;;;4946184;29;20098;-79
2020/12/14 06:39:41;;;;;;;5.88;2.97;;;3.50;94.80;;;;;;4928466;29;20040;-81
2020/12/14 06:42:22;;;;;;;4.50;2.70;;;3.60;94.90;;;;;;4904679;29;20047;-80
2020/12/14 06:45:14;;;;;;;9.27;2.50;;;3.50;94.70;;;;;;4941607;29;20050;-83
2020/12/14 06:47:46;;;;;;;5.30;2.35;;;3.50;94.60;;;;;;4943264;29;20059;-81
2020/12/14 06:50:37;;;;;;;5.90;2.88;;;3.60;94.60;;;;;;4946041;29;20059;-79
2020/12/14 06:53:45;;;;;;;10.35;2.90;;;3.70;94.90;;;;;;4942766;29;20649;-80
2020/12/14 06:56:15;;;;;;;8.60;3.00;;;3.70;94.50;;;;;;4939094;29;20055;-80
2020/12/14 06:58:43;;;;;;;5.80;3.00;;;3.70;94.30;;;;;;4945387;29;20126;-80
2020/12/14 07:01:34;;;;;;;7.22;2.75;;;3.70;94.40;;;;;;4925917;29;20044;-80
2020/12/14 07:04:02;;;;;;;5.93;2.70;;;3.70;94.50;;;;;;4912195;29;20071;-81
2020/12/14 07:06:30;;;;;;;7.07;2.35;;;3.80;94.80;;;;;;4927799;29;20127;-80
2020/12/14 07:08:58;;;;;;;5.22;2.22;;;4.00;95.00;;;;;;4922812;29;20150;-82
2020/12/14 07:11:26;;;;;;;3.65;1.77;;;4.20;94.90;;;;;;4942886;28;20313;-80
2020/12/14 07:13:54;;;;;;;3.83;1.67;;;4.30;94.80;;;;;;4953388;28;20345;-81
2020/12/14 07:16:31;;;;;;;4.82;1.60;;;4.40;94.80;;;;;;4943864;29;20063;-80
2020/12/14 07:18:58;;;;;;;3.47;1.77;;;4.50;94.50;;;;;;4945280;29;20047;-80
2020/12/14 07:21:28;;;;;;;4.28;2.08;;;4.60;94.10;;;;;;4942674;29;20046;-80
2020/12/14 07:23:58;;;;;;;3.55;2.08;;;4.60;94.00;;;;;;4945073;29;20123;-81
2020/12/14 07:26:26;;;;;;;4.22;1.48;;;4.60;93.70;;;;;;4944876;29;20127;-80
2020/12/14 07:28:55;;;;;;;5.25;2.22;;;4.70;93.80;;;;;;4927765;29;20044;-81
2020/12/14 07:31:24;;;;;;;4.03;2.38;;;4.70;93.40;;;;;;4941638;29;20122;-81
2020/12/14 07:33:56;;;;;;;3.50;1.98;;;4.70;92.80;;;;;;4942338;29;20296;-79
2020/12/14 07:36:24;;;;;;;8.35;2.28;;;4.60;91.80;;;;;;4942782;29;20059;-80
2020/12/14 07:38:54;;;;;;;4.30;2.53;;;4.30;92.30;;;;;;4961368;28;20059;-79
2020/12/14 07:41:23;;;;;;;3.70;1.80;;;4.10;92.20;;;;;;4954664;28;20123;-81
2020/12/14 07:43:54;;;;;;;4.88;2.53;;;3.90;92.80;;;;;;4946317;29;20071;-80
2020/12/14 07:46:25;;;;;;;5.78;2.05;;;3.80;92.70;;;;;;4944830;29;20082;-80
2020/12/14 07:49:07;;;;;;;4.95;2.53;;;3.70;92.90;;;;;;4945233;29;20047;-82
2020/12/14 07:51:36;;;;;;;3.78;1.83;;;3.70;93.40;;;;;;4939805;29;20126;-80
2020/12/14 07:54:08;;;;;;;4.57;2.17;;;3.90;93.20;;;;;;4956225;28;20250;-81
2020/12/14 07:56:45;;;;;;;7.80;2.92;;;3.90;92.90;;;;;;4965464;28;20066;-80
2020/12/14 07:59:20;;;;;;;5.78;2.95;;;4.00;93.10;;;;;;4945585;29;20125;-78
2020/12/14 08:01:48;;;;;;;7.65;3.28;;;4.20;93.50;;;;;;4937781;29;20385;-79
2020/12/14 08:04:22;;;;;;;5.30;2.53;;;4.40;93.40;;;;;;4954608;29;20063;-80
2020/12/14 08:06:51;;;;;;;4.40;1.90;;;4.60;92.90;;;;;;4944329;29;20070;-80
2020/12/14 08:09:19;;;;;;;4.00;1.90;;;4.90;92.30;;;;;;4941634;29;20062;-78
2020/12/14 08:11:50;;;;;;;3.47;1.85;;;5.10;92.00;;;;;;4948383;29;20074;-81
2020/12/14 08:14:18;;;;;;;4.03;1.90;;;5.30;91.40;;;;;;4926580;29;20047;-81
2020/12/14 08:16:47;;;;;;;5.82;2.70;;;5.40;90.80;;;;;;4927363;29;20081;-79
2020/12/14 08:19:18;;;;;;;4.90;1.98;;;5.50;90.40;;;;;;4944815;29;20039;-78
2020/12/14 08:22:07;;;;;;;4.10;1.55;;;5.50;89.80;;;;;;4947414;29;20071;-79
2020/12/14 08:24:34;;;;;;;4.00;1.90;;;5.60;89.50;;;;;;4946841;29;20181;-79
2020/12/14 08:27:05;;;;;;;4.50;1.80;;;5.70;90.10;;;;;;4931491;29;20059;-79
2020/12/14 08:29:35;;;;;;;3.65;1.52;;;5.70;88.60;;;;;;4926103;29;20054;-80
2020/12/14 08:32:03;;;;;;;5.45;2.72;;;5.80;88.60;;;;;;4948899;29;20056;-81
2020/12/14 08:34:38;;;;;;;5.28;2.63;;;5.80;87.90;;;;;;4947527;29;20067;-82
2020/12/14 08:37:06;;;;;;;8.75;3.17;;;5.90;88.50;;;;;;4946354;29;20115;-81
2020/12/14 08:39:34;;;;;;;9.25;3.60;;;5.90;88.60;;;;;;4929725;29;20081;-80
2020/12/14 08:42:11;;;;;;;6.85;2.90;;;5.90;88.30;;;;;;4947630;29;20056;-80
2020/12/14 08:44:40;;;;;;;5.15;2.00;;;6.00;88.10;;;;;;4914487;29;20063;-80
2020/12/14 08:47:16;;;;;;;4.50;2.10;;;6.00;87.30;;;;;;4928318;29;20051;-79
2020/12/14 08:49:43;;;;;;;7.10;2.83;;;6.10;87.50;;;;;;4947040;29;20540;-80
2020/12/14 08:52:19;;;;;;;4.78;2.05;;;6.10;87.60;;;;;;4947811;29;20091;-80
2020/12/14 08:54:53;;;;;;;5.13;2.53;;;6.20;88.00;;;;;;4945839;29;20051;-79
2020/12/14 08:57:28;;;;;;;4.22;1.90;;;6.30;87.40;;;;;;4936345;29;20157;-79
2020/12/14 09:00:00;;;;;;;4.88;1.85;;;6.20;87.00;;;;;;4931485;29;20059;-80
2020/12/14 09:02:30;;;;;;;4.63;2.20;;;6.20;87.60;;;;;;4928572;29;20052;-80
2020/12/14 09:04:57;;;;;;;5.88;1.90;;;6.20;87.40;;;;;;4927700;29;20068;-80
2020/12/14 09:07:25;;;;;;;4.43;2.17;;;6.20;87.50;;;;;;4929500;29;20231;-80
2020/12/14 09:09:52;;;;;;;4.43;1.73;;;6.30;86.70;;;;;;4943067;29;20047;-80
2020/12/14 09:12:20;;;;;;;5.07;2.67;;;6.40;87.00;;;;;;4948889;29;20059;-78
2020/12/14 09:14:48;;;;;;;8.05;2.92;;;6.40;86.60;;;;;;4928678;29;20050;-79
2020/12/14 09:17:17;;;;;;;5.80;2.35;;;6.40;86.10;;;;;;4945060;29;20063;-80
2020/12/14 09:19:51;;;;;;;5.10;2.50;;;6.40;86.00;;;;;;4945105;29;20047;-80
2020/12/14 09:22:25;;;;;;;5.38;2.47;;;6.40;85.90;;;;;;4947369;29;20252;-80
2020/12/14 09:24:52;;;;;;;5.97;2.15;;;6.90;83.60;;;;;;4942157;29;20167;-80
2020/12/14 09:27:21;;;;;;;7.85;2.60;;;7.80;82.60;;;;;;4944547;29;20123;-79
2020/12/14 09:29:50;;;;;;;7.32;2.97;;;8.40;77.90;;;;;;4936961;29;20074;-80
2020/12/14 09:32:17;;;;;;;5.28;2.28;;;8.50;77.30;;;;;;4943502;29;20074;-79
2020/12/14 09:34:44;;;;;;;6.28;2.88;;;8.40;77.20;;;;;;4930275;29;20044;-78
2020/12/14 09:37:11;;;;;;;7.28;2.78;;;8.10;78.20;;;;;;4957770;28;20059;-79
2020/12/14 09:39:40;;;;;;;7.38;3.53;;;8.20;79.80;;;;;;4927102;29;20068;-81
2020/12/14 09:42:08;;;;;;;7.50;3.25;;;8.30;76.10;;;;;;4946639;29;20073;-81
2020/12/14 09:44:36;;;;;;;8.13;4.40;;;7.80;79.50;;;;;;4961889;28;20118;-79
2020/12/14 09:47:05;;;;;;;6.60;3.20;;;8.10;79.30;;;;;;4947456;29;20048;-79
2020/12/14 09:49:32;;;;;;;7.68;3.88;;;8.60;75.70;;;;;;4958982;28;20124;-79
2020/12/14 09:51:59;;;;;;;7.35;4.18;;;8.50;76.10;;;;;;4950121;29;20094;-80
2020/12/14 09:54:26;;;;;;;7.13;4.25;;;8.80;75.60;;;;;;4927538;29;20122;-81
2020/12/14 09:56:53;;;;;;;7.18;4.05;;;8.70;74.70;;;;;;4943934;29;20067;-81
2020/12/14 09:59:20;;;;;;;9.00;3.80;;;8.30;75.70;;;;;;4945244;29;20335;-80
2020/12/14 10:01:47;;;;;;;8.55;4.32;;;8.20;76.50;;;;;;4959858;28;20358;-79
2020/12/14 10:04:15;;;;;;;8.18;4.03;;;7.90;77.60;;;;;;4942713;29;20067;-81
2020/12/14 10:06:41;;;;;;;13.18;5.28;;;7.90;78.60;;;;;;4943123;29;20047;-81
2020/12/14 10:09:10;;;;;;;11.27;4.43;;;7.60;78.30;;;;;;4943203;29;20071;-80
2020/12/14 10:11:37;;;;;;;8.50;4.22;;;7.40;79.10;;;;;;4920442;29;20373;-80
2020/12/14 10:14:04;;;;;;;9.30;4.05;;;7.30;79.90;;;;;;4923589;29;20055;-80
2020/12/14 10:16:32;;;;;;;8.02;4.30;;;7.20;80.00;;;;;;4948080;29;20130;-79
2020/12/14 10:18:59;;;;;;;9.73;4.72;;;7.10;81.00;;;;;;4924153;29;20343;-79
2020/12/14 10:21:27;;;;;;;8.90;4.30;;;7.40;80.80;;;;;;4929993;29;20250;-81
2020/12/14 10:23:54;;;;;;;9.43;4.38;;;7.90;78.90;;;;;;4944508;29;20043;-79
2020/12/14 10:26:21;;;;;;;7.13;4.05;;;8.90;75.80;;;;;;4941086;29;20052;-80
2020/12/14 10:28:53;;;;;;;9.05;4.53;;;9.20;73.70;;;;;;4926868;29;20377;-81
2020/12/14 10:31:20;;;;;;;9.70;4.57;;;9.10;74.60;;;;;;4913936;29;20058;-83
2020/12/14 10:33:47;;;;;;;7.80;3.88;;;9.70;72.20;;;;;;4910992;29;20060;-81
2020/12/14 10:36:18;;;;;;;6.20;3.63;;;10.30;70.40;;;;;;4922236;29;20051;-79
2020/12/14 10:38:47;;;;;;;9.02;4.35;;;10.70;66.90;;;;;;4944681;29;20271;-82
2020/12/14 10:41:17;;;;;;;7.60;4.00;;;10.40;68.30;;;;;;4947654;29;20130;-80
2020/12/14 10:43:44;;;;;;;7.30;3.80;;;10.90;67.10;;;;;;4928523;29;20062;-80
2020/12/14 10:46:11;;;;;;;9.85;4.40;;;10.90;65.20;;;;;;4926258;29;20055;-80
2020/12/14 10:48:39;;;;;;;8.60;4.40;;;11.10;66.70;;;;;;4930102;29;20051;-79
2020/12/14 10:51:06;;;;;;;7.55;3.80;;;10.60;67.00;;;;;;4944069;29;20066;-81
2020/12/14 10:53:33;;;;;;;7.88;4.00;;;9.90;69.50;;;;;;4908899;29;20350;-79
2020/12/14 10:56:01;;;;;;;9.27;4.10;;;9.60;71.30;;;;;;4946368;29;20066;-79
2020/12/14 10:58:29;;;;;;;7.25;3.90;;;9.70;71.20;;;;;;4947668;29;20050;-81
2020/12/14 11:00:56;;;;;;;7.43;3.72;;;9.80;70.30;;;;;;4942401;29;20103;-79
2020/12/14 11:03:25;;;;;;;7.68;3.95;;;10.10;70.20;;;;;;4924065;29;20091;-80
2020/12/14 11:05:53;;;;;;;7.53;3.58;;;10.70;67.20;;;;;;4909647;29;20048;-79
2020/12/14 11:08:20;;;;;;;7.35;4.03;;;11.50;64.40;;;;;;4919631;29;20056;-83
2020/12/14 11:10:47;;;;;;;8.75;4.43;;;11.50;64.80;;;;;;4939745;29;21433;-83
2020/12/14 11:13:16;;;;;;;10.98;4.60;;;11.10;65.20;;;;;;4943946;29;20052;-79
2020/12/14 11:15:44;;;;;;;9.32;4.38;;;10.70;66.10;;;;;;4938691;29;20056;-84
2020/12/14 11:18:11;;;;;;;8.57;4.18;;;11.10;64.80;;;;;;4961444;28;20055;-79
2020/12/14 11:20:41;;;;;;;7.93;3.85;;;11.80;63.00;;;;;;4942071;29;20048;-80
2020/12/14 11:23:08;;;;;;;7.25;4.18;;;12.50;60.60;;;;;;4944944;29;20044;-78
2020/12/14 11:25:35;;;;;;;9.00;4.93;;;12.60;60.10;;;;;;4945031;29;20091;-79
2020/12/14 11:28:02;;;;;;;12.23;5.72;;;12.30;60.20;;;;;;4960190;28;20377;-81
2020/12/14 11:30:30;;;;;;;9.27;5.93;;;12.20;61.60;;;;;;4944031;29;20066;-81
2020/12/14 11:32:57;;;;;;;7.82;4.35;;;12.10;61.30;;;;;;4963133;28;20413;-80
2020/12/14 11:35:24;;;;;;;8.80;4.55;;;12.20;59.80;;;;;;4949495;29;20111;-79
2020/12/14 11:37:51;;;;;;;11.20;4.97;;;12.40;60.60;;;;;;4948309;29;20144;-81
2020/12/14 11:40:18;;;;;;;8.57;4.20;;;12.70;58.60;;;;;;4945071;29;20136;-81
2020/12/14 11:42:45;;;;;;;7.22;4.28;;;13.20;56.30;;;;;;4948819;29;20118;-79
2020/12/14 11:45:12;;;;;;;8.77;4.10;;;12.70;57.50;;;;;;4947430;29;20286;-80
2020/12/14 11:47:40;;;;;;;9.00;3.90;;;12.20;60.80;;;;;;4947886;29;20067;-79
2020/12/14 11:50:07;;;;;;;8.77;4.88;;;12.10;59.30;;;;;;4962809;28;20059;-80
2020/12/14 11:52:34;;;;;;;7.55;3.75;;;12.60;58.70;;;;;;4949212;29;20059;-79
2020/12/14 11:55:03;;;;;;;8.18;4.22;;;12.70;58.10;;;;;;4943920;29;20056;-81
2020/12/14 11:57:30;;;;;;;7.28;3.78;;;12.20;59.00;;;;;;4968681;28;20048;-81
2020/12/14 11:59:57;;;;;;;11.30;5.18;;;12.10;58.80;;;;;;4947617;29;20055;-80
2020/12/14 12:02:25;;;;;;;10.15;5.30;;;12.30;59.50;;;;;;4946639;29;20055;-82
2020/12/14 12:04:53;;;;;;;8.15;4.35;;;13.10;57.70;;;;;;4948965;29;20067;-83
2020/12/14 12:07:19;;;;;;;8.07;4.03;;;13.50;55.80;;;;;;4945932;29;20361;-81
2020/12/14 12:09:47;;;;;;;7.60;4.15;;;13.60;55.00;;;;;;4947084;29;20047;-80
2020/12/14 12:12:15;;;;;;;11.20;5.10;;;12.90;55.80;;;;;;3545042;28;10020761;-80
2020/12/14 12:14:42;;;;;;;7.57;3.85;;;12.20;58.60;;;;;;1700680;29;10001992;-80
2020/12/14 12:17:10;;;;;;;8.80;4.32;;;12.00;60.70;;;;;;4931089;29;20067;-80
2020/12/14 12:19:37;;;;;;;7.18;3.97;;;11.70;60.60;;;;;;4964506;28;20079;-80
2020/12/14 12:22:08;;;;;;;8.55;4.35;;;11.10;62.80;;;;;;4941109;29;20063;-81
2020/12/14 12:24:35;;;;;;;8.73;4.00;;;10.40;65.50;;;;;;4962700;28;20039;-79
2020/12/14 12:27:06;;;;;;;11.77;5.07;;;10.20;65.50;;;;;;4929245;29;20055;-78
2020/12/14 12:29:34;;;;;;;8.13;4.70;;;9.80;66.90;;;;;;4947128;29;20139;-80
2020/12/14 12:32:04;;;;;;;9.80;4.93;;;9.50;68.30;;;;;;4928539;29;20103;-79
2020/12/14 12:34:32;;;;;;;8.98;4.60;;;9.70;68.40;;;;;;4946530;29;20254;-80
2020/12/14 12:37:05;;;;;;;7.05;4.00;;;9.80;68.80;;;;;;4960640;28;20095;-82
2020/12/14 12:39:38;;;;;;;11.50;4.40;;;9.70;68.00;;;;;;4942535;29;20051;-80
2020/12/14 12:42:06;;;;;;;10.35;4.55;;;9.60;68.30;;;;;;4927573;29;20057;-79
2020/12/14 12:44:37;;;;;;;9.48;4.78;;;9.40;68.70;;;;;;4962139;28;20119;-79
2020/12/14 12:47:05;;;;;;;9.63;4.65;;;9.20;69.70;;;;;;4966097;28;20055;-80
2020/12/14 12:49:34;;;;;;;8.55;4.35;;;9.20;71.00;;;;;;4930610;29;20330;-79
2020/12/14 12:52:01;;;;;;;9.02;5.20;;;9.30;70.60;;;;;;4938612;29;20066;-79
2020/12/14 12:54:28;;;;;;;9.18;5.13;;;9.10;71.00;;;;;;4945568;29;20170;-80
2020/12/14 12:57:05;;;;;;;9.82;5.72;;;9.40;70.40;;;;;;4912309;29;20135;-79
2020/12/14 12:59:32;;;;;;;11.30;4.90;;;9.30;71.00;;;;;;4960279;28;20079;-81
2020/12/14 13:02:04;;;;;;;10.73;5.03;;;9.30;71.80;;;;;;4958356;28;20094;-81
2020/12/14 13:04:31;;;;;;;10.30;5.38;;;9.10;72.10;;;;;;4947516;29;20359;-84
2020/12/14 13:06:58;;;;;;;11.73;4.78;;;9.00;72.50;;;;;;4940361;29;20063;-80
2020/12/14 13:09:25;;;;;;;10.02;5.00;;;8.80;73.30;;;;;;4950382;29;20052;-80
2020/12/14 13:11:53;;;;;;;12.82;5.40;;;8.70;73.50;;;;;;4929808;29;20063;-82
2020/12/14 13:14:21;;;;;;;11.45;4.80;;;8.60;74.00;;;;;;4916217;29;20287;-80
2020/12/14 13:16:49;;;;;;;10.00;4.88;;;8.40;74.50;;;;;;4951349;29;20055;-81